Terminal Aerodrome Forecast
Issued by NWS Bismarck, ND

Home | Current Version | Previous Version | Graphics & Text | Print | Product List | Glossary On
Versions: 1 2 3 4 5 6 7 8 9 10 11 12 13 14 15 16 17 18 19 20 21 22 23 24
000
FTUS43 KBIS 200900 AAA
TAFBIS
TAF AMD
KBIS 200920Z 2009/2106 32011KT P6SM SKC
     FM201500 31018G24KT P6SM FEW025
     FM201700 32022G32KT P6SM SKC
     FM210200 33011KT P6SM FEW120=

USA.gov is the U.S. government's official web portal to all federal, state and local government web resources and services.